Time;durP1;ratioP1;P1;durP2;ratioP2;P2;SDS_P1;SDS_P2;PMS_P1;PMS_P2;Temp;Humidity;BMP_temperature;BMP_pressure;BME280_temperature;BME280_humidity;BME280_pressure;Samples;Min_cycle;Max_cycle;Signal;HPM_P1;HPM_P2
2021/05/09 00:02:09;;;;;;;3.67;2.95;;;10.30;99.90;;;;;;4873454;29;20433;-81
2021/05/09 00:04:39;;;;;;;3.45;2.60;;;10.40;99.90;;;;;;4899198;29;20420;-80
2021/05/09 00:07:09;;;;;;;3.00;2.80;;;10.20;99.90;;;;;;4886991;29;20428;-80
2021/05/09 00:09:40;;;;;;;2.40;2.20;;;10.40;99.90;;;;;;4876042;29;20407;-81
2021/05/09 00:12:50;;;;;;;3.75;2.97;;;10.30;99.90;;;;;;4888998;29;20969;-81
2021/05/09 00:15:46;;;;;;;2.80;2.58;;;10.20;99.90;;;;;;4900144;29;20445;-81
2021/05/09 00:18:14;;;;;;;2.77;2.40;;;10.20;99.90;;;;;;4881248;29;20440;-81
2021/05/09 00:20:42;;;;;;;3.83;3.13;;;10.00;99.90;;;;;;4871012;29;20445;-81
2021/05/09 00:23:12;;;;;;;2.63;2.42;;;10.10;99.90;;;;;;4850324;29;20822;-80
2021/05/09 00:25:37;;;;;;;3.55;2.70;;;10.10;99.90;;;;;;4892567;29;20401;-78
2021/05/09 00:28:04;;;;;;;2.90;2.70;;;10.10;99.90;;;;;;4868437;29;20411;-80
2021/05/09 00:30:30;;;;;;;2.22;2.13;;;10.10;99.90;;;;;;4898059;29;20416;-80
2021/05/09 00:32:56;;;;;;;2.63;2.42;;;10.10;99.90;;;;;;4862986;29;20447;-79
2021/05/09 00:35:22;;;;;;;3.00;2.38;;;10.10;99.90;;;;;;4878119;29;20847;-80
2021/05/09 00:37:48;;;;;;;2.70;2.50;;;10.00;99.90;;;;;;4893585;29;20405;-79
2021/05/09 00:40:13;;;;;;;3.97;2.50;;;10.10;99.90;;;;;;4862867;29;20477;-80
2021/05/09 00:42:39;;;;;;;2.28;2.15;;;10.10;99.90;;;;;;4858752;29;20977;-78
2021/05/09 00:45:06;;;;;;;3.20;2.50;;;10.10;99.90;;;;;;4878658;29;20421;-79
2021/05/09 00:47:31;;;;;;;2.40;2.20;;;10.10;99.90;;;;;;4852718;29;20557;-80
2021/05/09 00:49:57;;;;;;;3.90;2.60;;;10.10;99.90;;;;;;4851072;29;20403;-80
2021/05/09 00:52:24;;;;;;;2.70;2.50;;;10.10;99.90;;;;;;4889750;29;20409;-80
2021/05/09 00:54:57;;;;;;;3.30;2.63;;;10.00;99.90;;;;;;4874937;29;20444;-80
2021/05/09 00:57:23;;;;;;;2.85;2.65;;;10.10;99.90;;;;;;4866124;29;20425;-79
2021/05/09 00:59:52;;;;;;;3.17;2.07;;;10.10;99.90;;;;;;4869863;29;21049;-80
2021/05/09 01:02:18;;;;;;;2.30;2.10;;;10.10;99.90;;;;;;4863019;29;20817;-80
2021/05/09 01:04:45;;;;;;;2.33;2.13;;;10.20;99.90;;;;;;4870624;29;20407;-80
2021/05/09 01:07:14;;;;;;;2.60;2.40;;;10.10;99.90;;;;;;4894708;29;20431;-79
2021/05/09 01:09:40;;;;;;;4.15;2.20;;;10.10;99.90;;;;;;4886600;29;20419;-80
2021/05/09 01:12:10;;;;;;;2.60;2.40;;;10.10;99.90;;;;;;4878281;29;20406;-80
2021/05/09 01:14:36;;;;;;;2.47;2.28;;;10.10;99.90;;;;;;4873417;29;20422;-80
2021/05/09 01:17:02;;;;;;;2.70;2.50;;;10.00;99.90;;;;;;4853771;29;20444;-80
2021/05/09 01:19:28;;;;;;;2.67;2.47;;;10.10;99.90;;;;;;4882260;29;21161;-80
2021/05/09 01:21:54;;;;;;;2.42;2.17;;;10.00;99.90;;;;;;4879754;29;20397;-80
2021/05/09 01:24:20;;;;;;;2.17;2.00;;;10.00;99.90;;;;;;4883738;29;20493;-79
2021/05/09 01:26:46;;;;;;;2.50;2.30;;;9.90;99.90;;;;;;4863085;29;20415;-80
2021/05/09 01:29:11;;;;;;;2.80;2.38;;;9.90;99.90;;;;;;4861444;29;20450;-78
2021/05/09 01:31:37;;;;;;;4.70;1.70;;;9.90;99.90;;;;;;4876544;29;20409;-80
2021/05/09 01:34:03;;;;;;;2.35;2.15;;;9.80;99.90;;;;;;4897877;29;20422;-80
2021/05/09 01:36:29;;;;;;;2.33;2.13;;;9.80;99.90;;;;;;4897945;29;20424;-80
2021/05/09 01:38:57;;;;;;;1.90;1.80;;;9.80;99.90;;;;;;4897503;29;20401;-79
2021/05/09 01:41:25;;;;;;;1.90;1.80;;;9.80;99.90;;;;;;4869275;29;20397;-80
2021/05/09 01:43:52;;;;;;;2.90;2.10;;;9.70;99.90;;;;;;4852633;29;20409;-80
2021/05/09 01:46:18;;;;;;;2.45;2.25;;;9.70;99.90;;;;;;4866678;29;20456;-79
2021/05/09 01:48:44;;;;;;;2.50;2.30;;;9.70;99.90;;;;;;4872628;29;20426;-78
2021/05/09 01:51:11;;;;;;;2.53;2.15;;;9.70;99.90;;;;;;4870778;29;20397;-80
2021/05/09 01:53:37;;;;;;;2.08;1.92;;;9.60;99.90;;;;;;4881902;29;20402;-80
2021/05/09 01:56:03;;;;;;;2.20;2.00;;;9.50;99.90;;;;;;4867316;29;20556;-80
2021/05/09 01:58:34;;;;;;;2.17;2.08;;;9.50;99.90;;;;;;4856994;29;20484;-80
2021/05/09 02:01:10;;;;;;;2.00;1.80;;;9.60;99.90;;;;;;4856334;29;20420;-80
2021/05/09 02:04:02;;;;;;;2.10;1.90;;;9.60;99.90;;;;;;4882320;29;20439;-79
2021/05/09 02:06:31;;;;;;;1.88;1.77;;;9.60;99.90;;;;;;4859918;29;20406;-79
2021/05/09 02:08:58;;;;;;;2.30;2.10;;;9.60;99.90;;;;;;4870928;29;21041;-79
2021/05/09 02:11:34;;;;;;;1.52;1.42;;;9.50;99.90;;;;;;4897082;29;20447;-79
2021/05/09 02:14:04;;;;;;;2.03;1.83;;;9.50;99.90;;;;;;4876884;29;20423;-80
2021/05/09 02:16:32;;;;;;;2.00;1.80;;;9.50;99.90;;;;;;4894196;29;20401;-79
2021/05/09 02:19:00;;;;;;;1.95;1.85;;;9.60;99.90;;;;;;4879448;29;20408;-79
2021/05/09 02:21:35;;;;;;;2.00;1.80;;;9.60;99.90;;;;;;4869086;29;20956;-79
2021/05/09 02:24:03;;;;;;;1.98;1.77;;;9.70;99.90;;;;;;4880374;29;20416;-80
2021/05/09 02:26:29;;;;;;;1.80;1.70;;;9.60;99.90;;;;;;4882576;29;20405;-81
2021/05/09 02:28:55;;;;;;;1.90;1.80;;;9.60;99.90;;;;;;4849866;29;20931;-80
2021/05/09 02:31:21;;;;;;;1.65;1.55;;;9.60;99.90;;;;;;4881332;29;20425;-81
2021/05/09 02:33:47;;;;;;;1.80;1.70;;;9.60;99.90;;;;;;4874482;29;20413;-81
2021/05/09 02:36:12;;;;;;;3.30;2.00;;;9.80;99.90;;;;;;4872240;29;20924;-80
2021/05/09 02:38:38;;;;;;;2.60;1.90;;;9.70;99.90;;;;;;4878903;29;20962;-81
2021/05/09 02:41:04;;;;;;;1.60;1.50;;;9.80;99.90;;;;;;4874530;29;20892;-80
2021/05/09 02:43:30;;;;;;;2.00;1.90;;;9.80;99.90;;;;;;4874724;29;20403;-81
2021/05/09 02:45:56;;;;;;;2.70;1.90;;;9.90;99.90;;;;;;4872120;29;20405;-81
2021/05/09 02:48:22;;;;;;;1.60;1.50;;;9.90;99.90;;;;;;4866968;29;20409;-81
2021/05/09 02:50:48;;;;;;;3.05;1.95;;;9.90;99.90;;;;;;4884339;29;20397;-81
2021/05/09 02:53:14;;;;;;;2.00;1.90;;;10.00;99.90;;;;;;4866547;29;20457;-81
2021/05/09 02:55:41;;;;;;;1.92;1.55;;;10.10;99.90;;;;;;4859348;29;20460;-81
2021/05/09 02:58:12;;;;;;;1.75;1.65;;;10.10;99.90;;;;;;4887120;29;20401;-81
2021/05/09 03:00:38;;;;;;;1.88;1.77;;;10.10;99.90;;;;;;4868708;29;20407;-80
2021/05/09 03:03:05;;;;;;;1.80;1.70;;;10.10;99.90;;;;;;4881953;29;20425;-80
2021/05/09 03:05:31;;;;;;;1.60;1.50;;;10.20;99.90;;;;;;4860772;29;20442;-79
2021/05/09 03:07:57;;;;;;;2.17;1.77;;;10.30;99.90;;;;;;4868820;29;20408;-80
2021/05/09 03:10:24;;;;;;;2.42;1.73;;;10.30;99.90;;;;;;4898448;29;20405;-81
2021/05/09 03:12:50;;;;;;;1.70;1.60;;;10.30;99.90;;;;;;4896614;29;20456;-80
2021/05/09 03:15:16;;;;;;;1.40;1.30;;;10.30;99.90;;;;;;4881577;29;20413;-80
2021/05/09 03:17:42;;;;;;;1.73;1.63;;;10.30;99.90;;;;;;4890421;29;20499;-81
2021/05/09 03:20:08;;;;;;;1.88;1.75;;;10.30;99.90;;;;;;4870014;29;20408;-81
2021/05/09 03:22:34;;;;;;;1.60;1.50;;;10.30;99.90;;;;;;4870141;29;20401;-81
2021/05/09 03:24:59;;;;;;;1.90;1.70;;;10.30;99.90;;;;;;4866843;29;20408;-80
2021/05/09 03:27:25;;;;;;;2.13;1.77;;;10.40;99.90;;;;;;4891245;29;20528;-81
2021/05/09 03:42:05;;;;;;;1.60;1.50;;;10.20;99.90;;;;;;4922636;29;20375;-80
2021/05/09 03:52:34;;;;;;;1.83;1.67;;;10.00;99.90;;;;;;5313276;23;20407;-79
2021/05/09 03:59:08;;;;;;;1.50;1.40;;;9.90;99.90;;;;;;4875161;29;20518;-80
2021/05/09 04:05:58;;;;;;;1.60;1.50;;;9.80;99.90;;;;;;4929844;29;20430;-82
2021/05/09 04:16:56;;;;;;;1.60;1.50;;;9.90;99.90;;;;;;4906849;29;20451;-80
2021/05/09 04:20:35;;;;;;;1.60;1.50;;;9.90;99.90;;;;;;4848670;29;20438;-82
2021/05/09 04:23:37;;;;;;;1.35;1.30;;;9.80;99.90;;;;;;4914356;29;20416;-81
2021/05/09 04:27:49;;;;;;;1.60;1.50;;;9.90;99.90;;;;;;4911766;29;20428;-81
2021/05/09 04:31:05;;;;;;;1.70;1.60;;;10.00;99.90;;;;;;5899560;23;20455;-80
2021/05/09 04:33:32;;;;;;;1.90;1.70;;;10.10;99.90;;;;;;4925227;29;20439;-81
2021/05/09 04:37:09;;;;;;;2.03;1.60;;;10.20;99.90;;;;;;4887478;29;20451;-80
2021/05/09 04:39:52;;;;;;;1.63;1.52;;;10.30;99.90;;;;;;4851970;29;20445;-79
2021/05/09 04:43:23;;;;;;;1.60;1.50;;;10.50;99.90;;;;;;4917638;29;20415;-80
2021/05/09 04:46:35;;;;;;;1.77;1.60;;;10.50;99.90;;;;;;4886751;29;20430;-79
2021/05/09 04:49:43;;;;;;;1.80;1.50;;;10.70;99.90;;;;;;4903185;29;20821;-79
2021/05/09 04:52:38;;;;;;;2.38;1.50;;;10.80;99.90;;;;;;4887342;29;20418;-80
2021/05/09 04:56:23;;;;;;;2.15;1.88;;;11.10;99.90;;;;;;4901142;29;20415;-80
2021/05/09 05:00:02;;;;;;;1.42;1.33;;;11.30;99.90;;;;;;4918193;29;20415;-80
2021/05/09 05:02:58;;;;;;;1.50;1.40;;;11.40;99.90;;;;;;4860830;29;20418;-79
2021/05/09 05:05:53;;;;;;;1.63;1.50;;;11.60;99.90;;;;;;4866403;29;20442;-79
2021/05/09 05:09:18;;;;;;;2.50;1.90;;;11.80;99.90;;;;;;4894735;29;20425;-80
2021/05/09 05:13:26;;;;;;;1.80;1.70;;;11.90;99.90;;;;;;4860825;29;20425;-81
2021/05/09 05:16:32;;;;;;;1.75;1.65;;;12.10;99.90;;;;;;4903311;29;20446;-80
2021/05/09 05:20:05;;;;;;;1.80;1.50;;;12.20;99.90;;;;;;4908094;29;20825;-81
2021/05/09 05:23:34;;;;;;;2.67;1.58;;;12.40;99.90;;;;;;4920658;29;20422;-80
2021/05/09 05:27:41;;;;;;;1.83;1.63;;;12.40;99.90;;;;;;4905977;29;20436;-80
2021/05/09 05:34:53;;;;;;;1.50;1.40;;;12.70;99.90;;;;;;4902117;29;20431;-81
2021/05/09 05:37:59;;;;;;;1.70;1.60;;;13.00;99.90;;;;;;4900130;29;20423;-81
2021/05/09 05:41:40;;;;;;;3.15;1.77;;;13.10;99.90;;;;;;4911366;29;20502;-80
2021/05/09 05:45:52;;;;;;;3.17;1.30;;;13.20;99.90;;;;;;4939511;29;20432;-81
2021/05/09 05:48:52;;;;;;;2.03;1.42;;;13.30;99.90;;;;;;4890557;29;20407;-79
2021/05/09 05:53:10;;;;;;;1.70;1.60;;;13.50;99.90;;;;;;4812012;29;20531;-80
2021/05/09 06:05:45;;;;;;;1.42;1.33;;;14.10;99.90;;;;;;4823598;29;20408;-80
2021/05/09 06:09:58;;;;;;;2.03;1.52;;;14.30;99.90;;;;;;4824272;29;20455;-84
2021/05/09 06:17:12;;;;;;;1.40;1.30;;;14.50;99.60;;;;;;4855071;29;20428;-80
2021/05/09 06:25:33;;;;;;;1.48;1.38;;;15.10;98.80;;;;;;4910908;29;20390;-80
2021/05/09 06:28:08;;;;;;;2.03;1.60;;;15.20;99.20;;;;;;4923945;29;20984;-78
2021/05/09 06:35:23;;;;;;;1.40;1.35;;;15.20;99.30;;;;;;4866199;29;20429;-81
2021/05/09 06:39:04;;;;;;;2.77;1.67;;;15.60;99.00;;;;;;4837712;29;20422;-81
2021/05/09 06:42:57;;;;;;;1.60;1.50;;;15.80;99.40;;;;;;4894352;29;20945;-80
2021/05/09 06:50:16;;;;;;;1.50;1.40;;;16.30;96.20;;;;;;4905037;29;20484;-81
2021/05/09 06:52:51;;;;;;;1.77;1.50;;;16.30;96.00;;;;;;4931505;29;20810;-80
2021/05/09 06:56:15;;;;;;;1.67;1.58;;;16.50;96.10;;;;;;4865387;29;20448;-83
2021/05/09 06:59:03;;;;;;;1.92;1.77;;;16.70;97.00;;;;;;4901395;29;20427;-80
2021/05/09 07:01:31;;;;;;;1.40;1.30;;;16.80;94.60;;;;;;4932197;29;20407;-81
2021/05/09 07:04:04;;;;;;;1.83;1.42;;;16.90;94.50;;;;;;4915216;29;20411;-80
2021/05/09 07:07:02;;;;;;;1.42;1.33;;;16.70;94.50;;;;;;4922696;29;20427;-80
2021/05/09 07:10:47;;;;;;;1.65;1.55;;;17.00;93.50;;;;;;4879464;29;20396;-80
2021/05/09 07:22:43;;;;;;;2.38;1.60;;;17.50;93.50;;;;;;4882875;29;20390;-80
2021/05/09 07:25:27;;;;;;;1.55;1.45;;;17.80;92.80;;;;;;4898366;29;20781;-81
2021/05/09 07:41:00;;;;;;;1.63;1.50;;;18.40;91.40;;;;;;4798347;29;20425;-82
2021/05/09 07:53:00;;;;;;;1.80;1.40;;;19.30;90.80;;;;;;4845035;29;20476;-81
2021/05/09 07:59:39;;;;;;;2.20;2.00;;;19.50;84.70;;;;;;4856917;29;20925;-80
2021/05/09 08:03:48;;;;;;;1.60;1.50;;;19.80;82.80;;;;;;4858375;29;20398;-80
2021/05/09 08:07:23;;;;;;;1.42;1.33;;;19.80;77.40;;;;;;4880894;29;20481;-81
2021/05/09 08:14:44;;;;;;;1.92;1.70;;;20.00;80.10;;;;;;4881836;29;20482;-78
2021/05/09 08:17:58;;;;;;;1.40;1.30;;;20.20;75.50;;;;;;4876720;29;20411;-79
2021/05/09 08:21:20;;;;;;;1.10;1.10;;;20.10;76.40;;;;;;4873973;29;20514;-78
2021/05/09 08:41:58;;;;;;;1.40;1.30;;;21.50;73.40;;;;;;4866623;29;20431;-79
2021/05/09 08:45:08;;;;;;;1.55;1.45;;;21.60;71.90;;;;;;4859699;29;20429;-80
2021/05/09 08:49:28;;;;;;;1.17;1.17;;;21.70;70.60;;;;;;4806493;29;20431;-79
2021/05/09 08:53:05;;;;;;;1.35;1.13;;;22.00;72.00;;;;;;4878932;29;20976;-79
2021/05/09 08:56:05;;;;;;;1.10;1.10;;;22.60;71.20;;;;;;4965392;23;20401;-86
2021/05/09 08:58:31;;;;;;;1.13;1.00;;;22.80;72.40;;;;;;4906715;29;20387;-79
2021/05/09 09:00:57;;;;;;;1.10;1.10;;;22.90;66.80;;;;;;4862511;29;20411;-79
2021/05/09 09:03:22;;;;;;;1.37;1.27;;;22.80;66.60;;;;;;4893923;29;20401;-79
2021/05/09 09:05:49;;;;;;;1.10;1.10;;;22.80;67.70;;;;;;4877498;29;20415;-80
2021/05/09 09:08:15;;;;;;;1.02;1.02;;;22.90;66.30;;;;;;4901033;29;20917;-82
2021/05/09 09:10:51;;;;;;;1.40;1.30;;;23.00;67.80;;;;;;4898767;29;20407;-80
2021/05/09 09:13:23;;;;;;;1.27;1.10;;;23.20;64.20;;;;;;4897030;29;20416;-81
2021/05/09 09:15:51;;;;;;;1.10;1.10;;;23.30;65.60;;;;;;4904243;29;20423;-83
2021/05/09 09:18:30;;;;;;;1.25;1.15;;;23.50;66.50;;;;;;4888416;29;20904;-81
2021/05/09 09:21:15;;;;;;;1.23;1.13;;;23.70;63.80;;;;;;4900950;29;20407;-84
2021/05/09 09:23:45;;;;;;;1.20;1.10;;;23.80;65.70;;;;;;4903581;29;20914;-79
2021/05/09 09:26:50;;;;;;;1.05;1.05;;;23.80;61.30;;;;;;4886872;29;20401;-80
2021/05/09 09:29:30;;;;;;;3.08;1.25;;;23.90;64.00;;;;;;4890998;29;20399;-82
2021/05/09 09:32:00;;;;;;;1.10;1.10;;;24.10;64.90;;;;;;4894508;29;20410;-81
2021/05/09 09:34:38;;;;;;;1.05;1.05;;;24.20;62.40;;;;;;4894646;29;20480;-80
2021/05/09 09:37:04;;;;;;;0.95;0.95;;;24.50;62.90;;;;;;4893058;29;20401;-79
2021/05/09 09:39:53;;;;;;;1.10;1.10;;;24.80;65.00;;;;;;4884445;29;20400;-82
2021/05/09 09:42:39;;;;;;;1.00;1.00;;;25.10;62.10;;;;;;4894688;29;20427;-82
2021/05/09 09:45:24;;;;;;;1.00;1.00;;;24.80;57.70;;;;;;4895803;29;20406;-82
2021/05/09 09:47:53;;;;;;;1.00;1.00;;;24.70;59.00;;;;;;4902168;29;20942;-79
2021/05/09 09:50:41;;;;;;;0.90;0.90;;;24.70;58.60;;;;;;4894934;29;20404;-79
2021/05/09 09:53:30;;;;;;;1.30;1.20;;;25.10;59.10;;;;;;4901640;29;20488;-82
2021/05/09 09:56:06;;;;;;;1.10;1.00;;;25.40;59.60;;;;;;4879326;29;20819;-79
2021/05/09 09:58:53;;;;;;;2.35;1.08;;;25.30;57.80;;;;;;4900687;29;20465;-81
2021/05/09 10:01:32;;;;;;;1.10;1.10;;;25.40;56.60;;;;;;4912393;29;20438;-81
2021/05/09 10:04:06;;;;;;;0.82;0.82;;;25.50;56.50;;;;;;4902822;29;20448;-82
2021/05/09 10:06:32;;;;;;;0.93;0.93;;;25.80;57.10;;;;;;4892198;29;20436;-82
2021/05/09 10:08:59;;;;;;;1.10;1.00;;;26.10;57.50;;;;;;4886851;29;20461;-82
2021/05/09 10:11:25;;;;;;;0.80;0.80;;;26.20;54.10;;;;;;4892686;29;20416;-79
2021/05/09 10:13:54;;;;;;;1.38;0.95;;;26.20;53.60;;;;;;4887789;29;20415;-81
2021/05/09 10:16:21;;;;;;;1.00;1.00;;;26.00;54.70;;;;;;4894418;29;20410;-82
2021/05/09 10:18:49;;;;;;;0.90;0.90;;;26.10;55.00;;;;;;4898800;29;20412;-79
2021/05/09 10:21:15;;;;;;;1.02;0.90;;;26.00;53.30;;;;;;4896497;29;20400;-84
2021/05/09 10:24:13;;;;;;;1.00;0.90;;;26.20;55.20;;;;;;4919239;29;20403;-79
2021/05/09 10:26:55;;;;;;;1.10;0.98;;;26.20;52.50;;;;;;4894017;29;20420;-83
2021/05/09 10:29:37;;;;;;;1.20;1.10;;;26.70;55.40;;;;;;4884552;29;20402;-82
2021/05/09 10:32:09;;;;;;;0.90;0.90;;;26.60;52.10;;;;;;4899775;29;20433;-83
2021/05/09 10:37:38;;;;;;;0.85;0.85;;;26.90;51.70;;;;;;4941338;29;20388;-82
2021/05/09 10:40:25;;;;;;;1.10;1.00;;;27.00;55.10;;;;;;4929131;29;20762;-82
2021/05/09 10:45:41;;;;;;;1.20;1.10;;;27.60;52.40;;;;;;4939275;29;20419;-78
2021/05/09 10:48:13;;;;;;;1.05;1.00;;;27.90;51.20;;;;;;4918635;29;20444;-80
2021/05/09 10:50:43;;;;;;;0.80;0.80;;;28.00;50.20;;;;;;4927493;29;20403;-79
2021/05/09 10:53:09;;;;;;;0.82;0.82;;;27.80;47.70;;;;;;4904720;29;20464;-82
2021/05/09 10:55:41;;;;;;;0.90;0.90;;;27.60;50.50;;;;;;4900149;29;20415;-81
2021/05/09 10:58:09;;;;;;;0.70;0.70;;;27.90;49.80;;;;;;4898785;29;20492;-79
2021/05/09 11:00:57;;;;;;;0.90;0.90;;;27.80;48.40;;;;;;4880763;29;20416;-82
2021/05/09 11:03:53;;;;;;;1.60;1.00;;;27.30;48.00;;;;;;4918967;29;20412;-81
2021/05/09 11:06:37;;;;;;;1.67;1.10;;;27.40;49.20;;;;;;4882209;29;20914;-82
2021/05/09 11:09:21;;;;;;;1.40;1.00;;;27.70;49.70;;;;;;4899956;29;20413;-81
2021/05/09 11:11:47;;;;;;;2.90;1.08;;;28.20;50.60;;;;;;4935892;29;20396;-82
2021/05/09 11:14:14;;;;;;;0.80;0.80;;;28.40;47.20;;;;;;4902286;29;20396;-83
2021/05/09 11:17:01;;;;;;;0.80;0.80;;;28.30;49.00;;;;;;4913633;29;20756;-79
2021/05/09 11:19:43;;;;;;;0.77;0.77;;;28.10;48.00;;;;;;4918348;29;20492;-78
2021/05/09 11:22:09;;;;;;;1.00;1.00;;;27.90;47.30;;;;;;4891306;29;20470;-80
2021/05/09 11:24:36;;;;;;;0.90;0.90;;;27.60;48.40;;;;;;4880770;29;20436;-79
2021/05/09 11:27:12;;;;;;;1.20;1.00;;;28.00;50.20;;;;;;4922169;29;20498;-84
2021/05/09 11:29:40;;;;;;;1.10;1.03;;;28.00;48.20;;;;;;4912507;29;20415;-81
2021/05/09 11:32:07;;;;;;;0.90;0.90;;;27.80;48.00;;;;;;4876408;29;20463;-79
2021/05/09 11:34:33;;;;;;;1.00;1.00;;;27.60;48.60;;;;;;4869258;29;20427;-84
2021/05/09 11:36:59;;;;;;;1.00;1.00;;;27.90;49.00;;;;;;4924813;28;20396;-82
2021/05/09 11:39:33;;;;;;;0.70;0.70;;;28.30;49.20;;;;;;4886081;29;20810;-81
2021/05/09 11:42:12;;;;;;;1.13;1.00;;;28.90;50.90;;;;;;4890473;29;20924;-80
2021/05/09 11:44:48;;;;;;;0.95;0.95;;;29.30;48.30;;;;;;4933286;29;20419;-81
2021/05/09 11:47:15;;;;;;;4.85;1.10;;;29.50;48.30;;;;;;4908148;29;20416;-81
2021/05/09 11:49:42;;;;;;;0.90;0.90;;;29.90;47.00;;;;;;4931597;29;20410;-80
2021/05/09 11:52:17;;;;;;;0.90;0.90;;;29.90;46.50;;;;;;4900613;29;20776;-80
2021/05/09 11:54:55;;;;;;;0.80;0.80;;;30.40;48.30;;;;;;4929665;29;20495;-80
2021/05/09 11:57:22;;;;;;;0.90;0.90;;;30.70;45.60;;;;;;4916080;29;20403;-80
2021/05/09 11:59:49;;;;;;;1.70;0.98;;;30.50;46.70;;;;;;4883327;29;20919;-79
2021/05/09 12:02:19;;;;;;;0.90;0.90;;;30.40;46.30;;;;;;4884727;29;20887;-80
2021/05/09 12:05:02;;;;;;;1.07;0.97;;;30.20;42.80;;;;;;4913006;29;20396;-79
2021/05/09 12:07:36;;;;;;;0.80;0.80;;;30.10;42.50;;;;;;4885113;29;20427;-80
2021/05/09 12:10:15;;;;;;;0.90;0.90;;;29.80;44.50;;;;;;4898859;29;20410;-80
2021/05/09 12:12:44;;;;;;;0.90;0.90;;;29.90;42.30;;;;;;4914384;29;20470;-78
2021/05/09 12:15:18;;;;;;;0.82;0.82;;;30.00;41.90;;;;;;4902538;29;20427;-80
2021/05/09 12:17:52;;;;;;;0.88;0.88;;;30.30;44.00;;;;;;4904948;29;20885;-79
2021/05/09 12:20:37;;;;;;;2.00;1.00;;;30.90;45.00;;;;;;4929182;29;25205;-79
2021/05/09 12:23:10;;;;;;;0.90;0.90;;;30.70;41.50;;;;;;4900446;29;20406;-79
2021/05/09 12:25:38;;;;;;;1.27;1.17;;;30.30;41.00;;;;;;4879524;29;20409;-79
2021/05/09 12:28:08;;;;;;;1.27;1.07;;;29.90;40.70;;;;;;4874707;29;20400;-78
2021/05/09 12:30:34;;;;;;;1.10;1.10;;;29.90;41.40;;;;;;4894233;29;20429;-79
2021/05/09 12:33:00;;;;;;;10.53;9.20;;;30.10;43.90;;;;;;4887397;29;20468;-78
2021/05/09 12:35:26;;;;;;;1.77;1.67;;;30.20;44.80;;;;;;4880400;29;20423;-78
2021/05/09 12:37:54;;;;;;;1.10;1.10;;;30.50;42.70;;;;;;4894216;29;20412;-79
2021/05/09 12:40:24;;;;;;;1.00;1.00;;;30.80;42.80;;;;;;4912481;29;20403;-79
2021/05/09 12:42:50;;;;;;;1.15;1.05;;;31.20;43.00;;;;;;4877764;29;20435;-78
2021/05/09 12:45:17;;;;;;;0.80;0.80;;;31.30;41.30;;;;;;4897232;29;20933;-79
2021/05/09 12:47:43;;;;;;;1.05;1.05;;;31.20;41.30;;;;;;4868992;29;20478;-79
2021/05/09 12:50:08;;;;;;;0.90;0.90;;;31.40;43.20;;;;;;4870883;29;20411;-79
2021/05/09 12:52:47;;;;;;;0.93;0.93;;;31.60;40.80;;;;;;4896015;29;20405;-80
2021/05/09 12:55:23;;;;;;;0.90;0.90;;;31.10;40.20;;;;;;4896097;29;20433;-80
2021/05/09 12:58:05;;;;;;;1.00;1.00;;;31.10;41.70;;;;;;4932507;29;20400;-78
2021/05/09 13:00:31;;;;;;;1.50;1.10;;;31.10;39.10;;;;;;4882888;29;20446;-79
2021/05/09 13:03:00;;;;;;;0.90;0.90;;;31.30;39.80;;;;;;4907189;29;20507;-79
2021/05/09 13:09:10;;;;;;;0.98;0.98;;;31.70;38.40;;;;;;4919662;29;20467;-80
2021/05/09 13:12:10;;;;;;;0.93;0.93;;;31.70;39.80;;;;;;4872208;29;20396;-80
2021/05/09 13:14:56;;;;;;;0.90;0.90;;;31.40;39.60;;;;;;4898546;29;20429;-79
2021/05/09 13:18:33;;;;;;;0.80;0.80;;;31.30;39.80;;;;;;4855770;29;20405;-80
2021/05/09 13:22:10;;;;;;;0.88;0.88;;;31.50;41.00;;;;;;4887479;29;20996;-79
2021/05/09 13:28:27;;;;;;;0.90;0.90;;;31.60;40.90;;;;;;4868420;29;20429;-80
2021/05/09 13:30:53;;;;;;;0.90;0.90;;;31.50;42.50;;;;;;4868503;29;20397;-79
2021/05/09 13:33:19;;;;;;;0.80;0.80;;;31.70;41.00;;;;;;4898487;29;20475;-79
2021/05/09 13:35:44;;;;;;;0.93;0.93;;;31.80;41.40;;;;;;4879438;29;20476;-79
2021/05/09 13:38:34;;;;;;;0.73;0.73;;;32.20;42.70;;;;;;4906861;29;20484;-80
2021/05/09 13:41:00;;;;;;;0.80;0.80;;;32.50;41.20;;;;;;4903945;29;20433;-79
2021/05/09 13:43:25;;;;;;;0.97;0.93;;;32.90;42.40;;;;;;4882330;29;20437;-79
2021/05/09 13:45:51;;;;;;;1.10;1.10;;;33.00;41.30;;;;;;4878896;29;20415;-79
2021/05/09 13:48:20;;;;;;;1.27;1.00;;;33.00;42.50;;;;;;4894259;29;20936;-79
2021/05/09 13:50:50;;;;;;;1.00;1.00;;;32.70;39.10;;;;;;4883330;29;20399;-79
2021/05/09 13:53:41;;;;;;;0.80;0.80;;;32.70;41.70;;;;;;4893812;29;20429;-79
2021/05/09 13:56:33;;;;;;;0.77;0.77;;;32.70;41.60;;;;;;4911169;29;20532;-79
2021/05/09 13:58:59;;;;;;;1.30;1.20;;;32.30;42.20;;;;;;4877559;29;20958;-79
2021/05/09 14:01:25;;;;;;;1.40;1.30;;;32.10;41.20;;;;;;4887048;29;20530;-79
2021/05/09 14:03:51;;;;;;;1.10;1.10;;;32.30;41.20;;;;;;4900455;29;20556;-79
2021/05/09 14:06:16;;;;;;;2.17;1.07;;;32.10;42.60;;;;;;4871511;29;20413;-79
2021/05/09 14:08:44;;;;;;;1.07;1.07;;;32.30;41.40;;;;;;4882277;29;20449;-79
2021/05/09 14:11:10;;;;;;;1.30;1.20;;;31.90;41.00;;;;;;4903806;29;20428;-78
2021/05/09 14:13:38;;;;;;;1.10;1.00;;;32.00;42.70;;;;;;4903631;29;20427;-78
2021/05/09 14:16:04;;;;;;;1.05;1.00;;;31.80;43.10;;;;;;4901690;29;20420;-78
2021/05/09 14:18:29;;;;;;;1.20;1.10;;;31.70;42.40;;;;;;4885808;29;20921;-79
2021/05/09 14:20:55;;;;;;;1.20;1.10;;;31.90;40.30;;;;;;4901724;29;20407;-77
2021/05/09 14:23:21;;;;;;;1.60;1.20;;;31.90;41.90;;;;;;4898338;29;20418;-76
2021/05/09 14:25:47;;;;;;;1.40;1.30;;;32.00;41.80;;;;;;4898573;29;20458;-77
2021/05/09 14:28:13;;;;;;;1.00;1.00;;;31.80;41.90;;;;;;4888487;29;20486;-77
2021/05/09 14:30:38;;;;;;;1.13;1.13;;;32.30;45.10;;;;;;4913527;29;20455;-77
2021/05/09 14:33:04;;;;;;;1.20;1.10;;;32.80;42.70;;;;;;4872472;29;20567;-77
2021/05/09 14:35:30;;;;;;;1.00;1.00;;;33.20;41.30;;;;;;4910447;29;21053;-78
2021/05/09 14:37:57;;;;;;;1.00;1.00;;;33.10;42.80;;;;;;4899002;29;20882;-77
2021/05/09 14:40:24;;;;;;;1.30;1.20;;;32.60;39.50;;;;;;4897270;29;20404;-77
2021/05/09 14:42:49;;;;;;;1.20;1.10;;;31.80;40.50;;;;;;4899344;29;20396;-77
2021/05/09 14:45:15;;;;;;;1.17;1.17;;;31.90;40.70;;;;;;4884801;29;20490;-77
2021/05/09 14:47:42;;;;;;;1.70;1.27;;;31.70;41.40;;;;;;4889546;29;20452;-77
2021/05/09 14:50:08;;;;;;;1.63;1.10;;;31.60;42.00;;;;;;4880752;29;20397;-76
2021/05/09 14:52:33;;;;;;;0.95;0.95;;;31.80;41.90;;;;;;4897242;29;20495;-77
2021/05/09 14:54:59;;;;;;;1.00;1.00;;;31.70;41.50;;;;;;4895271;29;20582;-77
2021/05/09 14:57:29;;;;;;;1.00;1.00;;;31.60;40.20;;;;;;4871307;29;20413;-77
2021/05/09 14:59:55;;;;;;;1.13;1.08;;;31.40;41.60;;;;;;4884600;29;20403;-77
2021/05/09 15:02:21;;;;;;;1.50;1.20;;;31.10;42.10;;;;;;4916923;29;20435;-77
2021/05/09 15:04:46;;;;;;;1.00;1.00;;;30.70;42.40;;;;;;4882297;29;20796;-77
2021/05/09 15:07:12;;;;;;;1.30;1.20;;;30.50;43.90;;;;;;4897397;29;20495;-76
2021/05/09 15:09:38;;;;;;;1.25;1.15;;;30.30;42.60;;;;;;4884493;29;20447;-76
2021/05/09 15:12:04;;;;;;;1.90;1.23;;;30.10;43.50;;;;;;4878969;29;20465;-77
2021/05/09 15:14:30;;;;;;;1.27;1.20;;;30.00;43.80;;;;;;4863171;29;20432;-77
2021/05/09 15:16:56;;;;;;;1.00;1.00;;;29.70;44.00;;;;;;4865782;29;20393;-77
2021/05/09 15:19:21;;;;;;;1.00;1.00;;;29.50;44.30;;;;;;4904946;29;20934;-78
2021/05/09 15:21:47;;;;;;;1.20;1.10;;;29.30;44.50;;;;;;4894172;29;20399;-78
2021/05/09 15:24:13;;;;;;;1.37;1.27;;;29.10;45.30;;;;;;4880824;29;20404;-77
2021/05/09 15:26:38;;;;;;;1.42;1.33;;;28.80;44.70;;;;;;4875750;29;20457;-77
2021/05/09 15:29:04;;;;;;;1.25;1.17;;;28.70;45.90;;;;;;4864150;29;20401;-77
2021/05/09 15:31:30;;;;;;;1.00;1.00;;;28.50;46.60;;;;;;4893042;29;20396;-78
2021/05/09 15:34:02;;;;;;;1.00;1.00;;;28.70;46.90;;;;;;4880303;29;20386;-76
2021/05/09 15:36:28;;;;;;;2.30;1.23;;;28.80;47.40;;;;;;4881802;29;20470;-78
2021/05/09 15:38:54;;;;;;;1.00;1.00;;;28.50;46.50;;;;;;4914193;29;20524;-76
2021/05/09 15:41:22;;;;;;;1.40;1.30;;;28.40;47.60;;;;;;4859385;29;20405;-77
2021/05/09 15:43:48;;;;;;;1.30;1.20;;;28.50;47.40;;;;;;4879609;29;20442;-77
2021/05/09 15:46:14;;;;;;;1.42;1.33;;;28.50;46.70;;;;;;4890823;29;20400;-79
2021/05/09 15:48:40;;;;;;;1.20;1.20;;;28.40;46.90;;;;;;4891448;29;20786;-77
2021/05/09 15:51:05;;;;;;;1.27;1.17;;;28.30;47.30;;;;;;4892579;29;20407;-81
2021/05/09 15:53:31;;;;;;;1.25;1.17;;;28.20;48.20;;;;;;4874060;29;20436;-77
2021/05/09 15:55:57;;;;;;;1.00;1.00;;;28.10;48.40;;;;;;4882955;29;20432;-78
2021/05/09 15:58:23;;;;;;;1.20;1.10;;;28.10;48.80;;;;;;4907234;29;20922;-79
2021/05/09 16:00:51;;;;;;;1.42;1.33;;;27.80;48.20;;;;;;4877758;29;20449;-79
2021/05/09 16:03:17;;;;;;;1.15;1.08;;;27.70;48.30;;;;;;4905104;29;20432;-79
2021/05/09 16:05:43;;;;;;;1.55;1.27;;;27.80;48.20;;;;;;4908340;29;20772;-80
2021/05/09 16:08:16;;;;;;;1.35;1.25;;;27.60;47.90;;;;;;4912571;29;21408;-77
2021/05/09 16:10:42;;;;;;;1.10;1.10;;;27.60;48.50;;;;;;4881196;29;20884;-78